Time;durP1;ratioP1;P1;durP2;ratioP2;P2;SDS_P1;SDS_P2;PMS_P1;PMS_P2;Temp;Humidity;BMP_temperature;BMP_pressure;BME280_temperature;BME280_humidity;BME280_pressure;Samples;Min_cycle;Max_cycle;Signal;HPM_P1;HPM_P2
2023/12/28 00:00:25;;;;;;;17.07;8.00;;;7.50;99.90;;;;;;5019338;28;20180;-69
2023/12/28 00:02:50;;;;;;;9.87;7.60;;;7.50;99.90;;;;;;5014104;28;20684;-69
2023/12/28 00:05:16;;;;;;;9.70;7.13;;;7.50;99.90;;;;;;5017899;28;20215;-69
2023/12/28 00:07:41;;;;;;;16.80;8.73;;;7.50;99.90;;;;;;5015147;28;20178;-69
2023/12/28 00:10:07;;;;;;;11.50;7.93;;;7.50;99.90;;;;;;5019245;28;20185;-69
2023/12/28 00:12:33;;;;;;;10.40;7.60;;;7.50;99.90;;;;;;5011353;28;20726;-69
2023/12/28 00:14:58;;;;;;;10.57;7.87;;;7.50;99.90;;;;;;5016264;28;20532;-68
2023/12/28 00:17:24;;;;;;;11.47;8.10;;;7.50;99.90;;;;;;5017765;28;20188;-69
2023/12/28 00:19:50;;;;;;;14.53;8.90;;;7.50;99.90;;;;;;5015284;28;20648;-69
2023/12/28 00:22:15;;;;;;;9.47;7.30;;;7.60;99.90;;;;;;5015488;28;20188;-69
2023/12/28 00:24:41;;;;;;;11.73;7.97;;;7.70;99.90;;;;;;5021470;28;20301;-69
2023/12/28 00:27:07;;;;;;;11.00;8.00;;;7.70;99.90;;;;;;5007895;28;20225;-69
2023/12/28 00:29:33;;;;;;;9.30;6.60;;;7.80;99.90;;;;;;5015746;28;20189;-69
2023/12/28 00:31:59;;;;;;;11.30;7.83;;;7.80;99.90;;;;;;5046474;28;20424;-68
2023/12/28 00:34:25;;;;;;;10.97;7.93;;;7.80;99.90;;;;;;5013805;28;20473;-69
2023/12/28 00:36:50;;;;;;;9.77;8.20;;;7.90;99.90;;;;;;5016525;28;20185;-69
2023/12/28 00:39:16;;;;;;;12.43;8.00;;;7.80;99.90;;;;;;5012174;28;20195;-69
2023/12/28 00:41:41;;;;;;;9.70;7.40;;;7.70;99.90;;;;;;5015565;28;20285;-69
2023/12/28 00:44:09;;;;;;;9.73;7.63;;;7.70;99.90;;;;;;5017195;28;20248;-69
2023/12/28 00:46:35;;;;;;;9.13;7.33;;;7.70;99.90;;;;;;5014522;28;20222;-69
2023/12/28 00:49:01;;;;;;;15.20;7.87;;;7.70;99.90;;;;;;5015230;28;20448;-69
2023/12/28 00:51:26;;;;;;;13.77;9.23;;;7.70;99.90;;;;;;5016809;28;20443;-68
2023/12/28 00:53:52;;;;;;;10.10;7.90;;;7.70;99.90;;;;;;5019175;28;20610;-69
2023/12/28 00:56:20;;;;;;;12.03;8.80;;;7.50;99.90;;;;;;5017556;28;20180;-69
2023/12/28 00:58:46;;;;;;;12.90;9.37;;;7.50;99.90;;;;;;5019929;28;20218;-69
2023/12/28 01:01:11;;;;;;;10.73;8.17;;;7.50;99.90;;;;;;5013183;28;20431;-69
2023/12/28 01:03:37;;;;;;;12.23;8.30;;;7.50;99.90;;;;;;5045788;28;20220;-68
2023/12/28 01:06:04;;;;;;;10.57;8.13;;;7.50;99.90;;;;;;5019875;28;20185;-69
2023/12/28 01:08:29;;;;;;;14.10;9.43;;;7.50;99.90;;;;;;5015368;28;20266;-70
2023/12/28 01:10:55;;;;;;;8.20;7.17;;;7.40;99.90;;;;;;5015348;28;20595;-69
2023/12/28 01:13:20;;;;;;;11.97;8.90;;;7.40;99.90;;;;;;5017312;28;20216;-68
2023/12/28 01:15:46;;;;;;;10.77;7.47;;;7.40;99.90;;;;;;5049941;28;20215;-69
2023/12/28 01:18:11;;;;;;;11.70;8.50;;;7.40;99.90;;;;;;5020772;28;20173;-68
2023/12/28 01:20:37;;;;;;;11.50;8.50;;;7.40;99.90;;;;;;5017465;28;20208;-69
2023/12/28 01:23:03;;;;;;;12.73;8.77;;;7.30;99.90;;;;;;5022948;28;20208;-69
2023/12/28 01:25:29;;;;;;;15.50;8.83;;;7.30;99.90;;;;;;5020094;28;20196;-69
2023/12/28 01:27:54;;;;;;;9.73;7.40;;;7.40;99.90;;;;;;5023625;28;20302;-68
2023/12/28 01:30:20;;;;;;;11.10;7.50;;;7.40;99.90;;;;;;5017484;28;20473;-69
2023/12/28 01:32:45;;;;;;;11.93;8.00;;;7.40;99.90;;;;;;5018339;28;20230;-69
2023/12/28 01:35:11;;;;;;;12.53;7.47;;;7.40;99.90;;;;;;5019597;28;20928;-69
2023/12/28 01:37:36;;;;;;;10.60;8.00;;;7.40;99.90;;;;;;5025905;28;20633;-69
2023/12/28 01:40:03;;;;;;;11.57;8.30;;;7.40;99.90;;;;;;5021560;28;20558;-69
2023/12/28 01:42:30;;;;;;;10.53;7.10;;;7.50;99.90;;;;;;5019947;28;20226;-69
2023/12/28 01:44:57;;;;;;;10.20;6.70;;;7.50;99.90;;;;;;5020254;28;21111;-69
2023/12/28 01:47:24;;;;;;;10.70;7.33;;;7.50;99.90;;;;;;5022146;28;20449;-69
2023/12/28 01:49:50;;;;;;;10.80;7.67;;;7.50;99.90;;;;;;5020668;28;20443;-69
2023/12/28 01:52:15;;;;;;;12.03;7.50;;;7.50;99.90;;;;;;5017259;28;20905;-69
2023/12/28 01:54:41;;;;;;;9.83;7.57;;;7.50;99.90;;;;;;5020937;28;20218;-69
2023/12/28 01:57:07;;;;;;;7.80;6.80;;;7.50;99.90;;;;;;5022745;28;20197;-69
2023/12/28 01:59:33;;;;;;;8.13;6.23;;;7.60;99.90;;;;;;5023614;28;20569;-69
2023/12/28 02:01:59;;;;;;;7.70;6.10;;;7.60;99.90;;;;;;5017451;28;20567;-69
2023/12/28 02:04:28;;;;;;;8.87;6.30;;;7.60;99.90;;;;;;5021760;28;20907;-68
2023/12/28 02:06:57;;;;;;;9.33;6.40;;;7.70;99.90;;;;;;5019099;28;20189;-68
2023/12/28 02:09:23;;;;;;;8.37;6.30;;;7.80;99.90;;;;;;5023512;28;20569;-68
2023/12/28 02:11:49;;;;;;;9.77;6.17;;;7.80;99.90;;;;;;5023617;28;20439;-68
2023/12/28 02:14:15;;;;;;;8.00;5.60;;;7.80;99.90;;;;;;5024886;28;20203;-68
2023/12/28 02:17:00;;;;;;;8.60;5.80;;;8.00;99.90;;;;;;5021247;28;20500;-67
2023/12/28 02:19:41;;;;;;;9.97;6.67;;;8.10;99.90;;;;;;5025681;28;20426;-67
2023/12/28 02:22:08;;;;;;;7.90;5.47;;;8.20;99.90;;;;;;5023822;28;20407;-68
2023/12/28 02:25:08;;;;;;;8.67;5.20;;;8.30;99.90;;;;;;5024442;28;20481;-68
2023/12/28 02:27:37;;;;;;;6.40;4.87;;;8.30;99.90;;;;;;5020510;28;20753;-67
2023/12/28 02:30:05;;;;;;;5.77;4.77;;;8.60;99.90;;;;;;5023777;28;20423;-68
2023/12/28 02:32:51;;;;;;;7.20;4.93;;;8.70;99.90;;;;;;5018617;28;20483;-68
2023/12/28 02:35:35;;;;;;;7.07;4.33;;;8.80;99.90;;;;;;5018856;28;21011;-68
2023/12/28 02:38:08;;;;;;;7.10;3.97;;;8.80;99.90;;;;;;5017876;28;20797;-69
2023/12/28 02:40:38;;;;;;;7.30;4.40;;;8.90;99.90;;;;;;5018212;28;20537;-68
2023/12/28 02:43:08;;;;;;;4.90;4.17;;;9.10;99.90;;;;;;5022330;28;20443;-69
2023/12/28 02:45:34;;;;;;;6.60;4.63;;;9.20;99.90;;;;;;5022971;28;20797;-69
2023/12/28 02:48:00;;;;;;;6.80;4.50;;;9.30;99.90;;;;;;5019705;28;20451;-69
2023/12/28 02:50:26;;;;;;;5.60;4.00;;;9.30;99.90;;;;;;5017167;28;20597;-68
2023/12/28 02:52:52;;;;;;;14.50;4.10;;;9.40;99.90;;;;;;5023541;28;20423;-68
2023/12/28 02:55:17;;;;;;;5.83;4.30;;;9.50;99.90;;;;;;5017096;28;20294;-68
2023/12/28 02:57:46;;;;;;;6.60;4.13;;;9.60;99.90;;;;;;5046301;28;20219;-68
2023/12/28 03:00:12;;;;;;;4.70;3.87;;;9.70;99.90;;;;;;5023069;28;20720;-69
2023/12/28 03:02:38;;;;;;;5.57;3.87;;;9.70;99.90;;;;;;5023756;28;20446;-68
2023/12/28 03:05:07;;;;;;;5.00;4.03;;;9.80;99.90;;;;;;5023280;28;20416;-68
2023/12/28 03:07:33;;;;;;;3.87;3.47;;;9.90;99.90;;;;;;5019834;28;20180;-68
2023/12/28 03:09:59;;;;;;;5.23;4.00;;;9.90;99.90;;;;;;5022158;28;20477;-69
2023/12/28 03:12:24;;;;;;;4.63;3.50;;;10.00;99.90;;;;;;5014700;28;20460;-68
2023/12/28 03:14:50;;;;;;;5.00;3.77;;;10.10;99.90;;;;;;5021191;28;20220;-69
2023/12/28 03:17:16;;;;;;;5.50;3.60;;;10.10;99.90;;;;;;5015037;28;20530;-69
2023/12/28 03:19:41;;;;;;;5.80;3.93;;;10.30;99.90;;;;;;5018766;28;20207;-68
2023/12/28 03:22:07;;;;;;;5.30;3.80;;;10.30;99.90;;;;;;5022061;28;20193;-68
2023/12/28 03:24:32;;;;;;;5.23;4.10;;;10.40;99.90;;;;;;5022312;28;20270;-69
2023/12/28 03:26:58;;;;;;;6.90;4.40;;;10.50;99.90;;;;;;5017464;28;20188;-69
2023/12/28 03:29:24;;;;;;;6.30;4.40;;;10.40;99.90;;;;;;5022356;28;20181;-69
2023/12/28 03:31:49;;;;;;;5.10;3.70;;;10.40;99.90;;;;;;5022573;28;20184;-69
2023/12/28 03:34:15;;;;;;;6.80;4.20;;;10.40;99.90;;;;;;5022796;28;20208;-69
2023/12/28 03:36:41;;;;;;;5.20;3.90;;;10.50;99.90;;;;;;5023115;28;20185;-69
2023/12/28 03:39:08;;;;;;;6.97;4.47;;;10.50;99.90;;;;;;5018340;28;20554;-69
2023/12/28 03:41:33;;;;;;;5.70;3.80;;;10.50;99.90;;;;;;5022204;28;20249;-69
2023/12/28 03:43:59;;;;;;;6.47;4.40;;;10.50;99.90;;;;;;5023156;28;20458;-69
2023/12/28 03:46:26;;;;;;;6.17;4.60;;;10.60;99.90;;;;;;5018908;28;20202;-69
2023/12/28 03:48:52;;;;;;;5.50;3.90;;;10.60;99.90;;;;;;5018006;28;20333;-69
2023/12/28 03:51:18;;;;;;;11.30;5.67;;;10.50;99.90;;;;;;5018746;28;20803;-69
2023/12/28 03:53:43;;;;;;;7.60;3.60;;;10.50;99.90;;;;;;5020347;28;20470;-69
2023/12/28 03:56:24;;;;;;;4.70;3.43;;;10.50;99.90;;;;;;5020158;28;20176;-69
2023/12/28 03:58:51;;;;;;;4.87;3.50;;;10.50;99.90;;;;;;5018191;28;20172;-68
2023/12/28 04:01:21;;;;;;;4.67;3.67;;;10.60;99.90;;;;;;5019044;28;20473;-69
2023/12/28 04:03:47;;;;;;;6.90;3.50;;;10.60;99.90;;;;;;5023215;28;20442;-69
2023/12/28 04:06:13;;;;;;;6.57;3.60;;;10.80;99.90;;;;;;5020021;28;20940;-68
2023/12/28 04:08:40;;;;;;;4.93;3.83;;;10.80;99.90;;;;;;5042623;28;20447;-68
2023/12/28 04:11:06;;;;;;;4.80;3.57;;;10.80;99.90;;;;;;5018982;28;20411;-68
2023/12/28 04:13:31;;;;;;;3.97;3.20;;;10.70;99.90;;;;;;5019254;28;20515;-67
2023/12/28 04:15:57;;;;;;;5.40;3.30;;;10.70;99.90;;;;;;5020812;28;20184;-67
2023/12/28 04:18:22;;;;;;;4.10;3.03;;;10.80;99.90;;;;;;5021332;28;20184;-69
2023/12/28 04:20:48;;;;;;;4.80;3.37;;;10.80;99.90;;;;;;5012568;28;20264;-68
2023/12/28 04:23:14;;;;;;;4.90;3.70;;;10.90;99.90;;;;;;5020682;28;20208;-69
2023/12/28 04:25:40;;;;;;;4.17;3.47;;;10.90;99.90;;;;;;5018953;28;20204;-68
2023/12/28 04:28:07;;;;;;;4.47;3.07;;;10.90;99.90;;;;;;5022790;28;20410;-68
2023/12/28 04:30:32;;;;;;;4.27;3.00;;;10.90;99.90;;;;;;5019670;28;20181;-68
2023/12/28 04:32:58;;;;;;;4.00;3.00;;;10.90;99.90;;;;;;5019803;28;20443;-68
2023/12/28 04:35:23;;;;;;;3.73;3.00;;;11.00;99.90;;;;;;5022076;28;20204;-68
2023/12/28 04:37:49;;;;;;;4.40;3.10;;;11.00;99.90;;;;;;5020205;28;20180;-67
2023/12/28 04:40:15;;;;;;;5.60;3.00;;;10.90;99.90;;;;;;5017762;28;20203;-67
2023/12/28 04:42:41;;;;;;;4.23;2.87;;;10.90;99.90;;;;;;5016647;28;20615;-68
2023/12/28 04:45:07;;;;;;;3.50;2.53;;;10.90;99.90;;;;;;5022858;28;20189;-68
2023/12/28 04:47:32;;;;;;;4.30;2.83;;;10.90;99.90;;;;;;5017470;28;20592;-68
2023/12/28 04:49:58;;;;;;;3.50;2.50;;;10.90;99.90;;;;;;5021396;28;20447;-68
2023/12/28 04:52:24;;;;;;;3.30;2.60;;;10.90;99.90;;;;;;5025101;28;20199;-69
2023/12/28 04:54:49;;;;;;;4.70;3.33;;;10.90;99.90;;;;;;5024473;28;20204;-69
2023/12/28 04:57:15;;;;;;;5.90;2.83;;;10.90;99.90;;;;;;5022792;28;20195;-68
2023/12/28 04:59:41;;;;;;;4.00;2.80;;;10.90;99.90;;;;;;5024586;28;20255;-68
2023/12/28 05:02:07;;;;;;;3.73;3.13;;;10.70;99.90;;;;;;5023437;28;20187;-69
2023/12/28 05:04:33;;;;;;;4.10;3.00;;;10.80;99.90;;;;;;5020306;28;20427;-68
2023/12/28 05:06:58;;;;;;;4.23;3.13;;;10.80;99.90;;;;;;5021057;28;20411;-68
2023/12/28 05:09:24;;;;;;;4.00;3.00;;;10.70;99.90;;;;;;5049210;28;20458;-68
2023/12/28 05:11:49;;;;;;;3.90;2.90;;;10.70;99.90;;;;;;5020196;28;20273;-68
2023/12/28 05:14:15;;;;;;;4.03;2.80;;;10.70;99.90;;;;;;5020989;28;20208;-68
2023/12/28 05:16:41;;;;;;;4.70;2.77;;;10.60;99.90;;;;;;5025287;28;20267;-68
2023/12/28 05:19:06;;;;;;;4.40;3.33;;;10.60;99.90;;;;;;5026469;28;20175;-68
2023/12/28 05:21:32;;;;;;;4.20;3.10;;;10.70;99.90;;;;;;5020130;28;20542;-69
2023/12/28 05:23:57;;;;;;;5.00;3.40;;;10.70;99.90;;;;;;5024143;28;20725;-68
2023/12/28 05:26:24;;;;;;;4.77;3.00;;;10.70;99.90;;;;;;5022919;28;20177;-68
2023/12/28 05:28:49;;;;;;;4.30;3.20;;;10.60;99.90;;;;;;5053064;28;20189;-68
2023/12/28 05:31:15;;;;;;;5.57;3.50;;;10.60;99.90;;;;;;5023417;28;20427;-68
2023/12/28 05:33:40;;;;;;;4.67;4.10;;;10.70;99.90;;;;;;5024851;28;20679;-68
2023/12/28 05:36:06;;;;;;;4.70;3.30;;;10.70;99.90;;;;;;5023125;28;20187;-68
2023/12/28 05:38:32;;;;;;;3.83;2.83;;;10.70;99.90;;;;;;5023563;28;20208;-68
2023/12/28 05:40:57;;;;;;;4.90;3.10;;;10.70;99.90;;;;;;5026585;28;20854;-68
2023/12/28 05:43:23;;;;;;;5.03;3.40;;;10.70;99.90;;;;;;5030271;28;20208;-68
2023/12/28 05:45:49;;;;;;;6.13;3.00;;;10.70;99.90;;;;;;5027109;28;20188;-68
2023/12/28 05:48:15;;;;;;;4.93;3.30;;;10.80;99.90;;;;;;5024497;28;20192;-68
2023/12/28 05:50:40;;;;;;;3.63;2.90;;;10.80;99.90;;;;;;5023437;28;20184;-68
2023/12/28 05:53:06;;;;;;;4.33;3.17;;;10.80;99.90;;;;;;5025538;28;20488;-68
2023/12/28 05:55:31;;;;;;;6.37;3.17;;;10.70;99.90;;;;;;5025794;28;20267;-68
2023/12/28 05:57:57;;;;;;;4.87;3.13;;;10.80;99.90;;;;;;5020861;28;20188;-68
2023/12/28 06:00:22;;;;;;;3.70;3.13;;;10.70;99.90;;;;;;5022568;28;20280;-68
2023/12/28 06:02:51;;;;;;;6.00;2.93;;;10.80;99.90;;;;;;5018085;28;20219;-68
2023/12/28 06:05:17;;;;;;;8.40;2.70;;;10.80;99.90;;;;;;5025240;28;20185;-69
2023/12/28 06:07:43;;;;;;;4.50;3.20;;;10.80;99.90;;;;;;5022592;28;20956;-69
2023/12/28 06:10:09;;;;;;;7.60;3.33;;;10.80;99.90;;;;;;5020600;28;20485;-68
2023/12/28 06:12:36;;;;;;;4.20;2.90;;;10.80;99.90;;;;;;5021613;28;20442;-69
2023/12/28 06:15:02;;;;;;;4.90;3.00;;;10.80;99.90;;;;;;5022992;28;20474;-69
2023/12/28 06:17:28;;;;;;;4.30;2.80;;;10.80;99.90;;;;;;5020960;28;20811;-68
2023/12/28 06:19:54;;;;;;;4.00;2.90;;;10.80;99.90;;;;;;5021764;28;21684;-68
2023/12/28 06:22:19;;;;;;;4.10;3.07;;;10.80;99.90;;;;;;5020146;28;20181;-68
2023/12/28 06:24:45;;;;;;;4.20;2.77;;;10.90;99.90;;;;;;5022153;28;20212;-68
2023/12/28 06:27:11;;;;;;;3.60;3.10;;;10.80;99.90;;;;;;5045767;28;20196;-68
2023/12/28 06:29:36;;;;;;;4.00;3.33;;;10.80;99.90;;;;;;5020444;28;20435;-68
2023/12/28 06:32:02;;;;;;;3.70;2.53;;;10.80;99.90;;;;;;5019105;28;20188;-68
2023/12/28 06:34:28;;;;;;;5.10;3.30;;;10.80;99.90;;;;;;5020222;28;20859;-68
2023/12/28 06:36:53;;;;;;;3.30;2.70;;;10.80;99.90;;;;;;5023465;28;20558;-68
2023/12/28 06:39:19;;;;;;;5.77;3.00;;;10.80;99.90;;;;;;5023448;28;20188;-68
2023/12/28 06:41:48;;;;;;;3.70;2.70;;;10.90;99.90;;;;;;5020399;28;20188;-68
2023/12/28 06:44:14;;;;;;;18.33;3.27;;;10.90;99.90;;;;;;5020982;28;20820;-68
2023/12/28 06:46:40;;;;;;;4.10;2.80;;;10.90;99.90;;;;;;5022209;28;20525;-68
2023/12/28 06:49:06;;;;;;;6.00;2.90;;;10.90;99.90;;;;;;5020222;28;20442;-68
2023/12/28 06:51:33;;;;;;;4.07;2.63;;;11.00;99.90;;;;;;5019851;28;20446;-68
2023/12/28 06:53:59;;;;;;;4.40;2.73;;;11.10;99.90;;;;;;5019317;28;20471;-69
2023/12/28 06:56:24;;;;;;;4.03;2.90;;;11.10;99.90;;;;;;5020455;28;20442;-68
2023/12/28 06:58:50;;;;;;;4.30;2.90;;;11.10;99.90;;;;;;5018776;28;20423;-69
2023/12/28 07:01:16;;;;;;;7.67;4.00;;;11.00;99.90;;;;;;5022890;28;20216;-69
2023/12/28 07:03:41;;;;;;;5.60;3.40;;;11.10;99.90;;;;;;5020734;28;20212;-69
2023/12/28 07:06:08;;;;;;;3.90;2.77;;;11.10;99.90;;;;;;5022414;28;20363;-69
2023/12/28 07:08:33;;;;;;;4.10;2.70;;;11.00;99.90;;;;;;5024490;28;20187;-69
2023/12/28 07:10:59;;;;;;;3.60;2.73;;;11.10;99.90;;;;;;5020053;28;20431;-69
2023/12/28 07:13:25;;;;;;;4.87;2.60;;;11.10;99.90;;;;;;5019061;28;20263;-69
2023/12/28 07:15:51;;;;;;;3.97;3.20;;;11.00;99.90;;;;;;5018796;28;20181;-69
2023/12/28 07:18:16;;;;;;;5.07;3.27;;;11.00;99.90;;;;;;5022477;28;20284;-69
2023/12/28 07:20:42;;;;;;;4.70;3.43;;;10.90;99.90;;;;;;5019464;28;20604;-69
2023/12/28 07:23:08;;;;;;;6.50;2.87;;;10.90;99.90;;;;;;5024899;28;20302;-69
2023/12/28 07:25:34;;;;;;;5.03;3.20;;;10.80;99.90;;;;;;5021299;28;20180;-69
2023/12/28 07:28:00;;;;;;;4.47;3.40;;;10.70;99.90;;;;;;5022445;28;20442;-69
2023/12/28 07:30:25;;;;;;;3.67;3.17;;;10.80;99.90;;;;;;5019832;28;20180;-69
2023/12/28 07:32:51;;;;;;;5.13;3.17;;;10.70;99.90;;;;;;5020224;28;20192;-69
2023/12/28 07:35:17;;;;;;;4.77;3.60;;;10.70;99.90;;;;;;5022265;28;20204;-69
2023/12/28 07:37:44;;;;;;;5.27;3.00;;;10.60;99.90;;;;;;5018597;28;20181;-69
2023/12/28 07:40:11;;;;;;;5.10;3.20;;;10.70;99.90;;;;;;5021885;28;20419;-69
2023/12/28 07:42:37;;;;;;;4.20;2.90;;;10.60;99.90;;;;;;5018074;28;20441;-69
2023/12/28 07:45:04;;;;;;;5.37;3.60;;;10.60;99.90;;;;;;5018993;28;20518;-68
2023/12/28 07:47:29;;;;;;;4.30;3.40;;;10.60;99.90;;;;;;5020725;28;20423;-69
2023/12/28 07:49:55;;;;;;;6.30;3.73;;;10.60;99.90;;;;;;5021012;28;20433;-68
2023/12/28 07:52:21;;;;;;;5.43;3.70;;;10.50;99.90;;;;;;5017425;28;20220;-68
2023/12/28 07:54:46;;;;;;;5.27;3.40;;;10.50;99.90;;;;;;5018911;28;20311;-68
2023/12/28 07:57:12;;;;;;;6.00;3.30;;;10.50;99.90;;;;;;5018810;28;20181;-68
2023/12/28 07:59:37;;;;;;;4.07;3.03;;;10.50;99.90;;;;;;5021314;28;20218;-68
2023/12/28 08:02:03;;;;;;;4.50;3.70;;;10.40;99.90;;;;;;5017865;28;20226;-69
2023/12/28 08:04:29;;;;;;;5.50;3.10;;;10.40;99.90;;;;;;5019389;28;20315;-69
2023/12/28 08:06:54;;;;;;;4.93;3.50;;;10.40;99.90;;;;;;5020377;28;20188;-69
2023/12/28 08:09:20;;;;;;;8.13;3.60;;;10.40;99.90;;;;;;5021938;28;20242;-69
2023/12/28 08:11:45;;;;;;;6.00;3.70;;;10.40;99.90;;;;;;5021645;28;20219;-69
2023/12/28 08:14:11;;;;;;;4.90;3.57;;;10.40;99.90;;;;;;5017687;28;20211;-69
2023/12/28 08:16:37;;;;;;;5.03;3.80;;;10.40;99.90;;;;;;5019786;28;20191;-69
2023/12/28 08:19:02;;;;;;;5.70;3.70;;;10.40;99.90;;;;;;5019189;28;20189;-69
2023/12/28 08:21:28;;;;;;;5.60;3.63;;;10.40;99.90;;;;;;5016228;28;20542;-69
2023/12/28 08:23:53;;;;;;;5.10;3.53;;;10.40;99.90;;;;;;5019285;28;20246;-69
2023/12/28 08:26:19;;;;;;;7.87;3.80;;;10.30;99.90;;;;;;5026748;28;20212;-70
2023/12/28 08:28:45;;;;;;;5.40;3.40;;;10.30;99.90;;;;;;5057526;28;20196;-69
2023/12/28 08:31:10;;;;;;;4.33;3.13;;;10.40;99.90;;;;;;5031457;28;20184;-69
2023/12/28 08:33:39;;;;;;;5.40;3.87;;;10.40;99.90;;;;;;5021013;28;20291;-69
2023/12/28 08:36:06;;;;;;;5.63;3.40;;;10.40;99.90;;;;;;5037959;28;20305;-69
2023/12/28 08:38:32;;;;;;;9.67;3.43;;;10.40;99.90;;;;;;5027607;28;20498;-69
2023/12/28 08:40:57;;;;;;;8.43;3.47;;;10.40;99.90;;;;;;5024515;28;21016;-69
2023/12/28 08:43:23;;;;;;;6.90;3.30;;;10.40;99.90;;;;;;5023627;28;20204;-69
2023/12/28 08:45:48;;;;;;;12.40;3.97;;;10.50;99.90;;;;;;5025042;28;20180;-69
2023/12/28 08:48:14;;;;;;;5.57;4.40;;;10.50;99.90;;;;;;5026450;28;20580;-69
2023/12/28 08:50:39;;;;;;;4.90;3.37;;;10.50;99.90;;;;;;5024626;28;20263;-69
2023/12/28 08:53:05;;;;;;;6.23;3.60;;;10.60;99.90;;;;;;5025442;28;20710;-69
2023/12/28 08:55:31;;;;;;;4.50;3.10;;;10.60;99.90;;;;;;5026894;28;20754;-69
2023/12/28 08:57:56;;;;;;;6.57;3.93;;;10.60;99.90;;;;;;5025044;28;20192;-69
2023/12/28 09:00:22;;;;;;;5.67;3.87;;;10.70;99.90;;;;;;5023832;28;20195;-69
2023/12/28 09:02:47;;;;;;;7.90;3.97;;;10.70;99.90;;;;;;5022587;28;20184;-69
2023/12/28 09:05:14;;;;;;;5.50;3.07;;;10.70;99.90;;;;;;5028696;28;20238;-69
2023/12/28 09:07:42;;;;;;;6.20;3.80;;;10.70;99.90;;;;;;5021326;28;20618;-69
2023/12/28 09:10:11;;;;;;;5.40;3.37;;;10.80;99.90;;;;;;5024282;28;20944;-69
2023/12/28 09:12:38;;;;;;;4.73;3.90;;;10.80;99.90;;;;;;5031552;28;20842;-69
2023/12/28 09:15:05;;;;;;;7.23;4.10;;;10.80;99.90;;;;;;5023351;28;20487;-69
2023/12/28 09:17:30;;;;;;;6.90;4.37;;;10.80;99.90;;;;;;5023098;28;20412;-69
2023/12/28 09:19:57;;;;;;;4.47;3.30;;;10.90;99.90;;;;;;5023415;28;20411;-69
2023/12/28 09:22:23;;;;;;;5.67;4.07;;;10.90;99.90;;;;;;5020216;28;20599;-68
2023/12/28 09:24:49;;;;;;;5.50;3.23;;;10.90;99.90;;;;;;5021957;28;20560;-67
2023/12/28 09:27:14;;;;;;;5.37;3.30;;;10.90;99.90;;;;;;5023398;28;20259;-67
2023/12/28 09:29:40;;;;;;;8.33;4.40;;;11.00;99.90;;;;;;5021595;28;20192;-67
2023/12/28 09:32:06;;;;;;;10.70;5.17;;;11.00;99.90;;;;;;5017377;28;20199;-67
2023/12/28 09:34:31;;;;;;;5.90;4.93;;;10.90;99.90;;;;;;5028019;28;20203;-68
2023/12/28 09:36:57;;;;;;;6.13;4.40;;;10.90;99.90;;;;;;5028578;28;20231;-66
2023/12/28 09:39:23;;;;;;;7.60;4.70;;;10.90;99.90;;;;;;5020292;28;20184;-66
2023/12/28 09:41:59;;;;;;;7.57;4.50;;;10.90;99.90;;;;;;5023547;28;20188;-66
2023/12/28 09:44:25;;;;;;;6.70;4.50;;;10.90;99.90;;;;;;5022226;28;20458;-67
2023/12/28 09:46:53;;;;;;;5.97;4.47;;;10.90;99.90;;;;;;5029151;28;20434;-67
2023/12/28 09:49:21;;;;;;;5.67;3.80;;;11.00;99.90;;;;;;5031512;28;20407;-66
2023/12/28 09:51:47;;;;;;;7.20;5.20;;;11.00;99.90;;;;;;5020148;28;20818;-66
2023/12/28 09:54:13;;;;;;;6.40;4.37;;;11.00;99.90;;;;;;5019609;28;20980;-65
2023/12/28 09:56:40;;;;;;;6.97;4.90;;;11.00;99.90;;;;;;5019933;28;20457;-66
2023/12/28 09:59:06;;;;;;;5.80;5.20;;;11.00;99.90;;;;;;5021967;28;20212;-66
2023/12/28 10:01:36;;;;;;;6.57;4.90;;;11.00;99.90;;;;;;5024262;28;20847;-66
2023/12/28 10:04:03;;;;;;;6.63;3.90;;;11.10;99.90;;;;;;5024744;28;20434;-66
2023/12/28 10:06:29;;;;;;;6.70;4.00;;;11.00;99.90;;;;;;5023172;28;20423;-69
2023/12/28 10:08:55;;;;;;;6.40;3.80;;;11.00;99.90;;;;;;5045533;28;20439;-69
2023/12/28 10:11:22;;;;;;;5.17;3.63;;;11.00;99.90;;;;;;5021764;28;20185;-69
2023/12/28 10:13:50;;;;;;;8.80;4.23;;;11.00;99.90;;;;;;5022380;28;20486;-70
2023/12/28 10:16:16;;;;;;;10.03;3.87;;;10.90;99.90;;;;;;5023536;28;20423;-70
2023/12/28 10:18:43;;;;;;;8.07;4.80;;;10.90;99.90;;;;;;5023594;28;20446;-69
2023/12/28 10:21:09;;;;;;;7.60;4.10;;;11.00;99.90;;;;;;5018970;28;20439;-69
2023/12/28 10:23:34;;;;;;;5.40;3.80;;;10.90;99.90;;;;;;5021229;28;20862;-67
2023/12/28 10:26:00;;;;;;;6.50;4.30;;;10.90;99.90;;;;;;5014714;28;20438;-66
2023/12/28 10:28:26;;;;;;;5.47;3.70;;;11.00;99.90;;;;;;5018329;28;20659;-66
2023/12/28 10:30:58;;;;;;;6.73;4.30;;;10.90;99.90;;;;;;5020698;28;20439;-66
2023/12/28 10:33:23;;;;;;;5.30;3.63;;;11.00;99.90;;;;;;5022020;28;20231;-66
2023/12/28 10:35:50;;;;;;;7.70;4.10;;;11.00;99.90;;;;;;5024084;28;20880;-67
2023/12/28 10:38:17;;;;;;;5.70;4.33;;;11.00;99.90;;;;;;5020839;28;20189;-66
2023/12/28 10:40:44;;;;;;;6.20;3.97;;;11.00;99.90;;;;;;5029043;28;20980;-67
2023/12/28 10:43:14;;;;;;;8.00;3.70;;;11.00;99.90;;;;;;5024122;28;20814;-66
2023/12/28 10:45:40;;;;;;;6.67;3.93;;;11.00;99.90;;;;;;5026651;28;20480;-67
2023/12/28 10:48:07;;;;;;;7.27;3.63;;;10.90;99.90;;;;;;5022223;28;21112;-66
2023/12/28 10:50:46;;;;;;;5.60;3.90;;;10.80;99.90;;;;;;5025323;28;20420;-67
2023/12/28 10:53:15;;;;;;;5.50;3.97;;;10.80;99.90;;;;;;5023630;28;20928;-67
2023/12/28 10:56:15;;;;;;;5.17;3.60;;;10.90;99.90;;;;;;5023569;28;20416;-67
2023/12/28 10:58:59;;;;;;;4.70;3.50;;;10.80;99.90;;;;;;5021238;28;20658;-67
2023/12/28 11:01:38;;;;;;;6.23;5.23;;;10.80;99.90;;;;;;5027320;28;20410;-67
2023/12/28 11:04:49;;;;;;;5.73;3.93;;;10.80;99.90;;;;;;5025711;28;20462;-67
2023/12/28 11:07:18;;;;;;;4.70;3.77;;;10.70;99.90;;;;;;4997860;28;20419;-68
2023/12/28 11:09:54;;;;;;;5.90;3.43;;;10.70;99.90;;;;;;5050076;28;20563;-66
2023/12/28 11:12:20;;;;;;;5.00;3.60;;;10.70;99.90;;;;;;5045078;28;20457;-66
2023/12/28 11:14:48;;;;;;;6.03;3.40;;;10.80;99.90;;;;;;5043325;28;20442;-66
2023/12/28 11:17:16;;;;;;;6.40;3.50;;;10.80;99.90;;;;;;5045846;28;20792;-66
2023/12/28 11:19:42;;;;;;;7.93;3.87;;;10.80;99.90;;;;;;5033097;28;20443;-66
2023/12/28 11:22:08;;;;;;;5.50;3.87;;;10.70;99.90;;;;;;5034164;28;21147;-66
2023/12/28 11:24:34;;;;;;;4.77;3.30;;;10.70;99.90;;;;;;5036096;28;20540;-66
2023/12/28 11:27:01;;;;;;;5.07;3.60;;;10.70;99.90;;;;;;5043995;28;20425;-68
2023/12/28 11:29:32;;;;;;;5.90;4.00;;;10.80;99.90;;;;;;5037821;28;20274;-66
2023/12/28 11:31:59;;;;;;;9.60;3.73;;;10.80;99.90;;;;;;5043732;28;20422;-66
2023/12/28 11:34:34;;;;;;;4.43;3.80;;;10.80;99.90;;;;;;5037147;28;20518;-67
2023/12/28 11:37:04;;;;;;;7.20;4.03;;;10.80;99.90;;;;;;5037332;28;20419;-66
2023/12/28 11:39:34;;;;;;;4.93;3.90;;;10.80;99.90;;;;;;5035731;28;20435;-67
2023/12/28 11:42:05;;;;;;;4.50;3.60;;;10.80;99.90;;;;;;5033584;28;20506;-67
2023/12/28 11:44:37;;;;;;;4.30;3.80;;;10.80;99.90;;;;;;5034734;28;21224;-67
2023/12/28 11:47:31;;;;;;;6.30;4.20;;;10.80;99.90;;;;;;5039411;28;20445;-67
2023/12/28 11:50:07;;;;;;;5.23;3.93;;;10.90;99.90;;;;;;5033037;28;20451;-66
2023/12/28 11:52:34;;;;;;;5.20;4.20;;;10.80;99.90;;;;;;5036579;28;20437;-66
2023/12/28 11:55:00;;;;;;;6.93;4.10;;;10.80;99.90;;;;;;5038131;28;20429;-66
2023/12/28 11:57:26;;;;;;;4.60;3.70;;;10.80;99.90;;;;;;5043708;28;20445;-67
2023/12/28 11:59:59;;;;;;;6.23;3.97;;;10.80;99.90;;;;;;5039409;28;22280;-67
2023/12/28 12:02:26;;;;;;;6.73;3.87;;;10.80;99.90;;;;;;5030225;28;20558;-67
2023/12/28 12:04:57;;;;;;;5.30;3.77;;;10.90;99.90;;;;;;5035493;28;20450;-67
2023/12/28 12:07:25;;;;;;;7.53;4.57;;;10.90;99.90;;;;;;5026433;28;20771;-67
2023/12/28 12:10:00;;;;;;;9.40;4.73;;;10.90;99.90;;;;;;5032143;28;20439;-67
2023/12/28 12:12:26;;;;;;;6.43;3.83;;;10.90;99.90;;;;;;5033799;28;20875;-67
2023/12/28 12:14:52;;;;;;;6.73;4.87;;;10.90;99.90;;;;;;5034876;28;20465;-67
2023/12/28 12:17:18;;;;;;;5.07;4.00;;;10.90;99.90;;;;;;5029184;28;20437;-68
2023/12/28 12:19:47;;;;;;;7.30;4.93;;;10.90;99.90;;;;;;5025581;28;20188;-68
2023/12/28 12:22:13;;;;;;;6.33;4.27;;;11.00;99.90;;;;;;5013766;28;20444;-67
2023/12/28 12:24:41;;;;;;;7.90;4.73;;;11.10;99.90;;;;;;5018650;28;20470;-67
2023/12/28 12:27:06;;;;;;;6.70;4.43;;;11.10;99.90;;;;;;5019932;28;20430;-68
2023/12/28 12:29:32;;;;;;;10.97;7.77;;;11.10;99.90;;;;;;5016359;28;20477;-67
2023/12/28 12:31:58;;;;;;;6.70;4.60;;;11.10;99.90;;;;;;5018449;28;20879;-67
2023/12/28 12:34:24;;;;;;;5.87;4.20;;;11.10;99.90;;;;;;5018896;28;20208;-67
2023/12/28 12:36:52;;;;;;;5.37;3.70;;;11.00;99.90;;;;;;5006535;28;20423;-67
2023/12/28 12:39:17;;;;;;;5.40;3.90;;;11.10;99.90;;;;;;5016176;28;20243;-67
2023/12/28 12:41:46;;;;;;;8.20;3.73;;;11.10;99.90;;;;;;5022895;28;20462;-67
2023/12/28 12:44:12;;;;;;;5.50;4.13;;;11.10;99.90;;;;;;5010273;28;20213;-67
2023/12/28 12:46:38;;;;;;;4.40;3.50;;;11.00;99.90;;;;;;5020587;28;20446;-67